Nippon Maru — JNNU — position and weather

sailwx.info

Track history (hours):
 
Tides and Currents Weather Stations Pressure Air Temp Water Temp Dewpoint Dewpoint Depression Visibility Wind Speed Wind Dir Waves Ship Positions

Nippon Maru

Last reported at 2020-Jan-16 09:15 UTC. Time now 2020-Jan-25 05:08 UTC.
Position N 35°07' E 139°44'.
Warning: this ship's position is 8 days out of date.

Length 167 m; draft 6.5 m.

Type: Passenger vessel. MMSI: 431302000.

Date/timePositionNaut miles runAvg speedWind from/ knotsBaromVisibWave heightAir tempDewpointWater temp
2020-Jan-16 09:15N 35°07' E 139°44'1112.9
2020-Jan-16 08:25N 35°17' E 139°45'11 2.8
2020-Jan-16 04:30N 35°27' E 139°39'0 0.0
2020-Jan-16 04:00N 35°27' E 139°39'0 0.0
2020-Jan-16 03:30N 35°27' E 139°39'0 0.0
2020-Jan-16 02:30N 35°27' E 139°39'0 0.0
2020-Jan-16 01:30N 35°27' E 139°39'0 0.0
2020-Jan-15 23:30N 35°27' E 139°39'0 0.0
2020-Jan-15 22:30N 35°27' E 139°39'0 0.0
2020-Jan-15 20:00N 35°27' E 139°39'0 0.0
2020-Jan-15 19:30N 35°27' E 139°39'0 0.0
2020-Jan-15 18:00N 35°27' E 139°39'0 0.0
2020-Jan-15 14:00N 35°27' E 139°39'0 0.0
2020-Jan-15 12:30N 35°27' E 139°39'0 0.0
2020-Jan-15 11:30N 35°27' E 139°39'0 0.0
2020-Jan-15 09:30N 35°27' E 139°39'0 0.0
2020-Jan-15 08:30N 35°27' E 139°39'0 0.0
2020-Jan-15 05:00N 35°27' E 139°39'0 0.0
2020-Jan-15 03:30N 35°27' E 139°39'0 0.0
2020-Jan-15 02:30N 35°27' E 139°39'0 0.0
2020-Jan-15 01:30N 35°27' E 139°39'0 0.0
2020-Jan-15 00:00N 35°27' E 139°39'0 0.0
2020-Jan-14 21:30N 35°27' E 139°39'0 0.0
2020-Jan-14 21:00N 35°27' E 139°39'0 0.0
2020-Jan-14 19:30N 35°27' E 139°39'0 0.0
2020-Jan-14 18:30N 35°27' E 139°39'0 0.0
2020-Jan-14 18:00N 35°27' E 139°39'0 0.0
2020-Jan-14 17:30N 35°27' E 139°39'0 0.0
2020-Jan-14 17:00N 35°27' E 139°39'0 0.0
2020-Jan-14 15:00N 35°27' E 139°39'0 0.0
2020-Jan-14 14:30N 35°27' E 139°39'0 0.0
2020-Jan-14 13:30N 35°27' E 139°39'0 0.0
2020-Jan-14 12:00N 35°27' E 139°39'0 0.0
2020-Jan-14 11:30N 35°27' E 139°39'0 0.0
2020-Jan-14 11:00N 35°27' E 139°39'0 0.0
2020-Jan-14 10:00N 35°27' E 139°39'0 0.0
2020-Jan-14 07:30N 35°27' E 139°39'0 0.0
2020-Jan-14 05:59N 35°27' E 139°39'0 0.0
2020-Jan-14 05:29N 35°27' E 139°39'0 0.0
2020-Jan-14 00:59N 35°27' E 139°39'14 3.1
2020-Jan-13 20:29N 35°32' E 139°55'3 1.2
2020-Jan-13 18:00N 35°30' E 139°52'2 2.4
2020-Jan-13 17:00N 35°33' E 139°52'3 0.5
2020-Jan-13 11:36N 35°32' E 139°55'3 4.6
2020-Jan-13 11:00N 35°32' E 139°52'4 1.2
2020-Jan-13 08:00N 35°28' E 139°51'11 7.6
2020-Jan-13 06:30N 35°18' E 139°45'1910.9
2020-Jan-13 04:44N 34°59' E 139°37'22 1.3
2020-Jan-12 11:28N 35°14' E 139°16'6 6.2
2020-Jan-12 10:30N 35°16' E 139°23'8 5.2
2020-Jan-12 08:56N 35°11' E 139°32'3 6.6
2020-Jan-12 08:29N 35°09' E 139°33'9 6.3
2020-Jan-12 07:00N 35°09' E 139°44'18 4.6
2020-Jan-12 02:58N 35°27' E 139°39'0 0.0
2020-Jan-12 00:58N 35°27' E 139°39'0 0.0
2020-Jan-11 23:58N 35°27' E 139°39'3 3.1
2020-Jan-11 23:00N 35°26' E 139°42'611.8
2020-Jan-11 22:30N 35°20' E 139°43'1312.2
2020-Jan-11 21:29N 35°08' E 139°45'24213.4
2020-Jan-11 03:30N 34°17' E 134°58'817.2
2020-Jan-11 03:00N 34°24' E 135°02'917.2
2020-Jan-11 02:30N 34°32' E 135°07'9 8.9
2020-Jan-11 01:27N 34°41' E 135°11'0 0.0
2020-Jan-10 23:57N 34°41' E 135°11'0 0.9
2020-Jan-10 23:30N 34°40' E 135°12'  
2020-Jan-08 19:05N 34°27' E 134°30'1 9.9
2020-Jan-08 19:00N 34°28' E 134°30'9 9.2
2020-Jan-08 18:01N 34°31' E 134°41'5 9.8
2020-Jan-08 17:30N 34°33' E 134°46'15 7.6
2020-Jan-08 15:30N 34°36' E 135°04'510.9
2020-Jan-08 15:01N 34°36' E 135°11'5 4.9
2020-Jan-08 14:00N 34°41' E 135°12'0 0.1
2020-Jan-08 12:59N 34°41' E 135°12'0 0.0
2020-Jan-08 11:29N 34°41' E 135°12'0 0.0
2020-Jan-08 10:59N 34°41' E 135°12'0 0.0
2020-Jan-08 09:29N 34°41' E 135°12'0 0.0
2020-Jan-08 08:53N 34°41' E 135°12'0 0.0
2020-Jan-08 08:29N 34°41' E 135°12'0 0.0
2020-Jan-08 07:47N 34°41' E 135°12'0 0.0
2020-Jan-08 07:23N 34°41' E 135°12'0 0.0
2020-Jan-08 06:29N 34°41' E 135°12'0 0.0
2020-Jan-08 05:29N 34°41' E 135°12'0 0.2
2020-Jan-08 05:00N 34°41' E 135°12'8 5.6
2020-Jan-08 03:31N 34°33' E 135°15'1812.1
2020-Jan-08 02:00N 34°19' E 135°00'1211.7
2020-Jan-08 01:01N 34°07' E 134°59'23615.2
2020-Jan-07 09:30N 35°03' E 139°37'2113.8
2020-Jan-07 08:01N 35°23' E 139°42'510.5
2020-Jan-07 07:30N 35°27' E 139°39'0 0.0
2020-Jan-07 06:30N 35°27' E 139°39'2 1.6
2020-Jan-07 05:30N 35°27' E 139°41'1711.6
2020-Jan-07 04:00N 35°10' E 139°46'  
Track history (hours):
 
Tides and Currents Weather Stations Pressure Air Temp Water Temp Dewpoint Dewpoint Depression Visibility Wind Speed Wind Dir Waves Ship Positions

Nippon Maru

Last reported at 2020-Jan-16 09:15 UTC. Time now 2020-Jan-25 05:08 UTC.
Position N 35°07' E 139°44'.
Warning: this ship's position is 8 days out of date.

Length 167 m; draft 6.5 m.

Type: Passenger vessel. MMSI: 431302000.

Date/timePositionNaut miles runAvg speedWind from/ knotsBaromVisibWave heightAir tempDewpointWater temp
2020-Jan-16 09:15N 35°07' E 139°44'1112.9
2020-Jan-16 08:25N 35°17' E 139°45'11 2.8
2020-Jan-16 04:30N 35°27' E 139°39'0 0.0
2020-Jan-16 04:00N 35°27' E 139°39'0 0.0
2020-Jan-16 03:30N 35°27' E 139°39'0 0.0
2020-Jan-16 02:30N 35°27' E 139°39'0 0.0
2020-Jan-16 01:30N 35°27' E 139°39'0 0.0
2020-Jan-15 23:30N 35°27' E 139°39'0 0.0
2020-Jan-15 22:30N 35°27' E 139°39'0 0.0
2020-Jan-15 20:00N 35°27' E 139°39'0 0.0
2020-Jan-15 19:30N 35°27' E 139°39'0 0.0
2020-Jan-15 18:00N 35°27' E 139°39'0 0.0
2020-Jan-15 14:00N 35°27' E 139°39'0 0.0
2020-Jan-15 12:30N 35°27' E 139°39'0 0.0
2020-Jan-15 11:30N 35°27' E 139°39'0 0.0
2020-Jan-15 09:30N 35°27' E 139°39'0 0.0
2020-Jan-15 08:30N 35°27' E 139°39'0 0.0
2020-Jan-15 05:00N 35°27' E 139°39'0 0.0
2020-Jan-15 03:30N 35°27' E 139°39'0 0.0
2020-Jan-15 02:30N 35°27' E 139°39'0 0.0
2020-Jan-15 01:30N 35°27' E 139°39'0 0.0
2020-Jan-15 00:00N 35°27' E 139°39'0 0.0
2020-Jan-14 21:30N 35°27' E 139°39'0 0.0
2020-Jan-14 21:00N 35°27' E 139°39'0 0.0
2020-Jan-14 19:30N 35°27' E 139°39'0 0.0
2020-Jan-14 18:30N 35°27' E 139°39'0 0.0
2020-Jan-14 18:00N 35°27' E 139°39'0 0.0
2020-Jan-14 17:30N 35°27' E 139°39'0 0.0
2020-Jan-14 17:00N 35°27' E 139°39'0 0.0
2020-Jan-14 15:00N 35°27' E 139°39'0 0.0
2020-Jan-14 14:30N 35°27' E 139°39'0 0.0
2020-Jan-14 13:30N 35°27' E 139°39'0 0.0
2020-Jan-14 12:00N 35°27' E 139°39'0 0.0
2020-Jan-14 11:30N 35°27' E 139°39'0 0.0
2020-Jan-14 11:00N 35°27' E 139°39'0 0.0
2020-Jan-14 10:00N 35°27' E 139°39'0 0.0
2020-Jan-14 07:30N 35°27' E 139°39'0 0.0
2020-Jan-14 05:59N 35°27' E 139°39'0 0.0
2020-Jan-14 05:29N 35°27' E 139°39'0 0.0
2020-Jan-14 00:59N 35°27' E 139°39'14 3.1
2020-Jan-13 20:29N 35°32' E 139°55'3 1.2
2020-Jan-13 18:00N 35°30' E 139°52'2 2.4
2020-Jan-13 17:00N 35°33' E 139°52'3 0.5
2020-Jan-13 11:36N 35°32' E 139°55'3 4.6
2020-Jan-13 11:00N 35°32' E 139°52'4 1.2
2020-Jan-13 08:00N 35°28' E 139°51'11 7.6
2020-Jan-13 06:30N 35°18' E 139°45'1910.9
2020-Jan-13 04:44N 34°59' E 139°37'22 1.3
2020-Jan-12 11:28N 35°14' E 139°16'6 6.2
2020-Jan-12 10:30N 35°16' E 139°23'8 5.2
2020-Jan-12 08:56N 35°11' E 139°32'3 6.6
2020-Jan-12 08:29N 35°09' E 139°33'9 6.3
2020-Jan-12 07:00N 35°09' E 139°44'18 4.6
2020-Jan-12 02:58N 35°27' E 139°39'0 0.0
2020-Jan-12 00:58N 35°27' E 139°39'0 0.0
2020-Jan-11 23:58N 35°27' E 139°39'3 3.1
2020-Jan-11 23:00N 35°26' E 139°42'611.8
2020-Jan-11 22:30N 35°20' E 139°43'1312.2
2020-Jan-11 21:29N 35°08' E 139°45'24213.4
2020-Jan-11 03:30N 34°17' E 134°58'817.2
2020-Jan-11 03:00N 34°24' E 135°02'917.2
2020-Jan-11 02:30N 34°32' E 135°07'9 8.9
2020-Jan-11 01:27N 34°41' E 135°11'0 0.0
2020-Jan-10 23:57N 34°41' E 135°11'0 0.9
2020-Jan-10 23:30N 34°40' E 135°12'  
2020-Jan-08 19:05N 34°27' E 134°30'1 9.9
2020-Jan-08 19:00N 34°28' E 134°30'9 9.2
2020-Jan-08 18:01N 34°31' E 134°41'5 9.8
2020-Jan-08 17:30N 34°33' E 134°46'15 7.6
2020-Jan-08 15:30N 34°36' E 135°04'510.9
2020-Jan-08 15:01N 34°36' E 135°11'5 4.9
2020-Jan-08 14:00N 34°41' E 135°12'0 0.1
2020-Jan-08 12:59N 34°41' E 135°12'0 0.0
2020-Jan-08 11:29N 34°41' E 135°12'0 0.0
2020-Jan-08 10:59N 34°41' E 135°12'0 0.0
2020-Jan-08 09:29N 34°41' E 135°12'0 0.0
2020-Jan-08 08:53N 34°41' E 135°12'0 0.0
2020-Jan-08 08:29N 34°41' E 135°12'0 0.0
2020-Jan-08 07:47N 34°41' E 135°12'0 0.0
2020-Jan-08 07:23N 34°41' E 135°12'0 0.0
2020-Jan-08 06:29N 34°41' E 135°12'0 0.0
2020-Jan-08 05:29N 34°41' E 135°12'0 0.2
2020-Jan-08 05:00N 34°41' E 135°12'8 5.6
2020-Jan-08 03:31N 34°33' E 135°15'1812.1
2020-Jan-08 02:00N 34°19' E 135°00'1211.7
2020-Jan-08 01:01N 34°07' E 134°59'23615.2
2020-Jan-07 09:30N 35°03' E 139°37'2113.8
2020-Jan-07 08:01N 35°23' E 139°42'510.5
2020-Jan-07 07:30N 35°27' E 139°39'0 0.0
2020-Jan-07 06:30N 35°27' E 139°39'2 1.6
2020-Jan-07 05:30N 35°27' E 139°41'1711.6
2020-Jan-07 04:00N 35°10' E 139°46'  

Dump ship's entire track history